KCBF/CBF METAR and TAF weather

Enter ICAO airport designator
Station Type Date Time Source
KCBF METAR 2019/08/21 10:35 UTC NOAA

KCBF 211035Z AUTO 30004KT 7SM FEW011 SCT031 SCT040 23/23 A3003 RMK AO2


Station Type Date Time Source
KCBF Decoded METAR 2019/08/21 10:35 UTC NOAA

Station name not available
Aug 21, 2019 - 06:35 AM EDT / 2019.08.21 1035 UTC
Wind: from the WNW (300 degrees) at 5 MPH (4 KT):0
Visibility: 7 mile(s):0
Sky conditions: partly cloudy
Temperature: 73 F (23 C)
Dew Point: 73 F (23 C)
Relative Humidity: 100%
Pressure (altimeter): 30.03 in. Hg (1016 hPa)
ob: KCBF 211035Z AUTO 30004KT 7SM FEW011 SCT031 SCT040 23/23 A3003 RMK AO2
cycle: 10

Station Type Date Time Source
KCBF TAF UTC NOAA

Error!

Example: see airport list